KTOL/TOL METAR and TAF weather

Enter ICAO airport designator
Station Type Date Time Source
KTOL METAR 2020/07/06 20:52 UTC NOAA

KTOL 062052Z VRB03KT 10SM CLR 36/16 A2996 RMK AO2 SLP139 T03560156 58018


Station Type Date Time Source
KTOL Decoded METAR 2020/07/06 20:52 UTC NOAA

TOLEDO EXPRESS AIRPORT, OH, United States (KTOL) 41-35N 083-48W 210M
Jul 06, 2020 - 04:52 PM EDT / 2020.07.06 2052 UTC
Wind: Variable at 3 MPH (3 KT):0
Visibility: 10 mile(s):0
Sky conditions: clear
Temperature: 96.1 F (35.6 C)
Heat index: 96.1 F (35.6 C):1
Dew Point: 60.1 F (15.6 C)
Relative Humidity: 30%
Pressure (altimeter): 29.96 in. Hg (1014 hPa)
Pressure tendency: 0.05 inches (1.8 hPa) lower than three hours ago
ob: KTOL 062052Z VRB03KT 10SM CLR 36/16 A2996 RMK AO2 SLP139 T03560156 58018
cycle: 21

Station Type Date Time Source
KTOL TAF 2020/07/06 18:27 UTC NOAA

TAF KTOL 061720Z 0618/0718 VRB05KT P6SM FEW250
FM062000 VRB05KT P6SM VCSH SCT250
FM070000 VRB05KT P6SM SKC

Example: see airport list